sensor_id;sensor_type;location;lat;lon;timestamp;pressure;altitude;pressure_sealevel;temperature;humidity
44453;BME280;30155;52.164;21.236;2023-01-25T00:04:19;102635.42;;;1.63;90.74
44453;BME280;30155;52.164;21.236;2023-01-25T00:09:12;102634.81;;;1.62;90.67
44453;BME280;30155;52.164;21.236;2023-01-25T00:14:06;102634.28;;;1.59;90.94
44453;BME280;30155;52.164;21.236;2023-01-25T00:18:59;102639.17;;;1.61;91.03
44453;BME280;30155;52.164;21.236;2023-01-25T00:23:51;102637.15;;;1.59;91.00
44453;BME280;30155;52.164;21.236;2023-01-25T00:28:49;102621.24;;;1.57;90.55
44453;BME280;30155;52.164;21.236;2023-01-25T00:33:51;102617.83;;;1.50;90.49
44453;BME280;30155;52.164;21.236;2023-01-25T00:38:47;102617.90;;;1.47;90.38
44453;BME280;30155;52.164;21.236;2023-01-25T00:43:41;102615.59;;;1.46;90.85
44453;BME280;30155;52.164;21.236;2023-01-25T00:48:34;102613.91;;;1.47;90.86
44453;BME280;30155;52.164;21.236;2023-01-25T00:53:27;102615.11;;;1.49;90.85
44453;BME280;30155;52.164;21.236;2023-01-25T00:58:20;102602.91;;;1.46;90.37
44453;BME280;30155;52.164;21.236;2023-01-25T01:03:13;102593.73;;;1.44;90.44
44453;BME280;30155;52.164;21.236;2023-01-25T01:08:10;102593.45;;;1.41;90.06
44453;BME280;30155;52.164;21.236;2023-01-25T01:13:03;102593.45;;;1.37;89.72
44453;BME280;30155;52.164;21.236;2023-01-25T01:17:56;102594.31;;;1.33;89.31
44453;BME280;30155;52.164;21.236;2023-01-25T01:22:51;102590.85;;;1.30;89.45
44453;BME280;30155;52.164;21.236;2023-01-25T01:27:45;102596.11;;;1.30;89.52
44453;BME280;30155;52.164;21.236;2023-01-25T01:32:38;102591.52;;;1.30;89.46
44453;BME280;30155;52.164;21.236;2023-01-25T01:37:31;102591.88;;;1.30;89.32
44453;BME280;30155;52.164;21.236;2023-01-25T01:42:24;102585.34;;;1.28;89.40
44453;BME280;30155;52.164;21.236;2023-01-25T01:47:21;102580.67;;;1.27;88.90
44453;BME280;30155;52.164;21.236;2023-01-25T01:52:23;102578.32;;;1.26;88.90
44453;BME280;30155;52.164;21.236;2023-01-25T01:57:22;102579.52;;;1.24;89.08
44453;BME280;30155;52.164;21.236;2023-01-25T02:02:17;102581.77;;;1.22;88.83
44453;BME280;30155;52.164;21.236;2023-01-25T02:07:21;102576.21;;;1.23;89.04
44453;BME280;30155;52.164;21.236;2023-01-25T02:12:16;102565.48;;;1.21;88.70
44453;BME280;30155;52.164;21.236;2023-01-25T02:17:10;102563.23;;;1.19;88.72
44453;BME280;30155;52.164;21.236;2023-01-25T02:22:08;102558.69;;;1.18;88.64
44453;BME280;30155;52.164;21.236;2023-01-25T02:27:05;102555.81;;;1.16;88.48
44453;BME280;30155;52.164;21.236;2023-01-25T02:32:01;102553.64;;;1.12;88.00
44453;BME280;30155;52.164;21.236;2023-01-25T02:36:54;102546.02;;;1.07;87.51
44453;BME280;30155;52.164;21.236;2023-01-25T02:41:47;102543.30;;;1.05;87.76
44453;BME280;30155;52.164;21.236;2023-01-25T02:46:41;102541.73;;;1.03;87.47
44453;BME280;30155;52.164;21.236;2023-01-25T02:51:39;102540.66;;;1.02;87.42
44453;BME280;30155;52.164;21.236;2023-01-25T02:56:33;102539.40;;;1.00;87.13
44453;BME280;30155;52.164;21.236;2023-01-25T03:01:26;102537.58;;;0.96;87.12
44453;BME280;30155;52.164;21.236;2023-01-25T03:06:19;102538.65;;;0.95;86.94
44453;BME280;30155;52.164;21.236;2023-01-25T03:11:12;102530.23;;;0.92;86.85
44453;BME280;30155;52.164;21.236;2023-01-25T03:16:08;102524.05;;;0.90;86.93
44453;BME280;30155;52.164;21.236;2023-01-25T03:21:10;102512.67;;;0.89;86.70
44453;BME280;30155;52.164;21.236;2023-01-25T03:26:15;102502.29;;;0.85;86.33
44453;BME280;30155;52.164;21.236;2023-01-25T03:31:24;102499.04;;;0.83;86.75
44453;BME280;30155;52.164;21.236;2023-01-25T03:36:17;102495.59;;;0.82;86.45
44453;BME280;30155;52.164;21.236;2023-01-25T03:41:11;102477.58;;;0.81;86.19
44453;BME280;30155;52.164;21.236;2023-01-25T03:46:04;102476.25;;;0.75;85.64
44453;BME280;30155;52.164;21.236;2023-01-25T03:50:58;102476.49;;;0.70;85.94
44453;BME280;30155;52.164;21.236;2023-01-25T03:55:53;102486.75;;;0.67;85.58
44453;BME280;30155;52.164;21.236;2023-01-25T04:00:46;102508.36;;;0.64;85.38
44453;BME280;30155;52.164;21.236;2023-01-25T04:05:39;102491.67;;;0.58;85.12
44453;BME280;30155;52.164;21.236;2023-01-25T04:10:33;102482.03;;;0.51;84.58
44453;BME280;30155;52.164;21.236;2023-01-25T04:15:27;102475.92;;;0.46;84.76
44453;BME280;30155;52.164;21.236;2023-01-25T04:20:20;102468.04;;;0.43;84.59
44453;BME280;30155;52.164;21.236;2023-01-25T04:25:14;102467.86;;;0.39;84.73
44453;BME280;30155;52.164;21.236;2023-01-25T04:30:11;102477.92;;;0.35;84.52
44453;BME280;30155;52.164;21.236;2023-01-25T04:35:04;102479.11;;;0.31;84.47
44453;BME280;30155;52.164;21.236;2023-01-25T04:39:59;102473.78;;;0.30;84.71
44453;BME280;30155;52.164;21.236;2023-01-25T04:44:55;102464.05;;;0.30;84.81
44453;BME280;30155;52.164;21.236;2023-01-25T04:49:48;102457.80;;;0.31;84.66
44453;BME280;30155;52.164;21.236;2023-01-25T04:54:43;102461.39;;;0.29;84.51
44453;BME280;30155;52.164;21.236;2023-01-25T04:59:36;102459.09;;;0.30;84.81
44453;BME280;30155;52.164;21.236;2023-01-25T05:04:29;102450.70;;;0.30;84.89
44453;BME280;30155;52.164;21.236;2023-01-25T05:09:22;102444.13;;;0.31;84.54
44453;BME280;30155;52.164;21.236;2023-01-25T05:14:15;102445.58;;;0.30;84.60
44453;BME280;30155;52.164;21.236;2023-01-25T05:19:09;102444.87;;;0.28;84.64
44453;BME280;30155;52.164;21.236;2023-01-25T05:24:20;102442.80;;;0.25;84.76
44453;BME280;30155;52.164;21.236;2023-01-25T05:29:13;102442.36;;;0.22;84.66
44453;BME280;30155;52.164;21.236;2023-01-25T05:34:14;102439.88;;;0.19;84.87
44453;BME280;30155;52.164;21.236;2023-01-25T05:39:07;102444.73;;;0.16;84.54
44453;BME280;30155;52.164;21.236;2023-01-25T05:44:00;102445.10;;;0.15;84.85
44453;BME280;30155;52.164;21.236;2023-01-25T05:48:53;102448.39;;;0.11;84.31
44453;BME280;30155;52.164;21.236;2023-01-25T05:53:47;102449.84;;;0.08;84.58
44453;BME280;30155;52.164;21.236;2023-01-25T05:58:41;102443.90;;;0.10;84.85
44453;BME280;30155;52.164;21.236;2023-01-25T06:03:34;102441.27;;;0.10;84.70
44453;BME280;30155;52.164;21.236;2023-01-25T06:08:28;102433.49;;;0.09;84.60
44453;BME280;30155;52.164;21.236;2023-01-25T06:13:22;102426.31;;;0.04;84.32
44453;BME280;30155;52.164;21.236;2023-01-25T06:18:15;102420.92;;;0.01;84.38
44453;BME280;30155;52.164;21.236;2023-01-25T06:23:29;102416.54;;;-0.03;84.54
44453;BME280;30155;52.164;21.236;2023-01-25T06:28:22;102425.13;;;-0.04;84.44
44453;BME280;30155;52.164;21.236;2023-01-25T06:33:15;102433.07;;;-0.03;84.74
44453;BME280;30155;52.164;21.236;2023-01-25T06:38:08;102427.10;;;-0.01;84.70
44453;BME280;30155;52.164;21.236;2023-01-25T06:43:08;102427.80;;;-0.04;84.38
44453;BME280;30155;52.164;21.236;2023-01-25T06:48:02;102426.27;;;-0.04;84.91
44453;BME280;30155;52.164;21.236;2023-01-25T06:52:55;102431.29;;;-0.04;84.84
44453;BME280;30155;52.164;21.236;2023-01-25T06:57:48;102429.05;;;-0.06;84.47
44453;BME280;30155;52.164;21.236;2023-01-25T07:02:41;102421.89;;;-0.08;84.39
44453;BME280;30155;52.164;21.236;2023-01-25T07:07:35;102407.33;;;-0.09;84.52
44453;BME280;30155;52.164;21.236;2023-01-25T07:12:28;102392.80;;;-0.07;84.99
44453;BME280;30155;52.164;21.236;2023-01-25T07:17:21;102386.52;;;-0.07;84.81
44453;BME280;30155;52.164;21.236;2023-01-25T07:22:14;102387.27;;;-0.04;84.78
44453;BME280;30155;52.164;21.236;2023-01-25T07:27:08;102376.73;;;-0.02;84.81
44453;BME280;30155;52.164;21.236;2023-01-25T07:32:01;102378.86;;;0.02;84.93
44453;BME280;30155;52.164;21.236;2023-01-25T07:36:54;102380.21;;;0.02;84.63
44453;BME280;30155;52.164;21.236;2023-01-25T07:41:47;102381.88;;;-0.05;84.29
44453;BME280;30155;52.164;21.236;2023-01-25T07:46:42;102383.52;;;-0.06;84.68
44453;BME280;30155;52.164;21.236;2023-01-25T07:51:35;102388.17;;;-0.07;84.55
44453;BME280;30155;52.164;21.236;2023-01-25T07:56:33;102388.02;;;-0.09;84.47
44453;BME280;30155;52.164;21.236;2023-01-25T08:01:27;102386.08;;;-0.12;84.47
44453;BME280;30155;52.164;21.236;2023-01-25T08:06:23;102385.00;;;-0.12;84.65
44453;BME280;30155;52.164;21.236;2023-01-25T08:11:24;102383.06;;;-0.11;84.69
44453;BME280;30155;52.164;21.236;2023-01-25T08:16:20;102379.10;;;-0.14;84.32
44453;BME280;30155;52.164;21.236;2023-01-25T08:21:13;102374.84;;;-0.13;84.34
44453;BME280;30155;52.164;21.236;2023-01-25T08:26:08;102379.38;;;-0.10;84.40
44453;BME280;30155;52.164;21.236;2023-01-25T08:31:09;102364.99;;;-0.09;84.56
44453;BME280;30155;52.164;21.236;2023-01-25T08:36:03;102366.91;;;-0.09;84.29
44453;BME280;30155;52.164;21.236;2023-01-25T08:41:07;102354.21;;;-0.08;84.31
44453;BME280;30155;52.164;21.236;2023-01-25T08:46:00;102351.14;;;-0.04;84.32
44453;BME280;30155;52.164;21.236;2023-01-25T08:50:53;102348.95;;;0.01;84.11
44453;BME280;30155;52.164;21.236;2023-01-25T08:55:46;102351.36;;;0.01;83.71
44453;BME280;30155;52.164;21.236;2023-01-25T09:00:40;102342.86;;;-0.03;83.47
44453;BME280;30155;52.164;21.236;2023-01-25T09:05:34;102344.59;;;0.02;83.93
44453;BME280;30155;52.164;21.236;2023-01-25T09:10:27;102342.33;;;0.07;83.99
44453;BME280;30155;52.164;21.236;2023-01-25T09:15:20;102340.48;;;0.10;83.92
44453;BME280;30155;52.164;21.236;2023-01-25T09:20:13;102332.48;;;0.10;83.50
44453;BME280;30155;52.164;21.236;2023-01-25T09:25:06;102327.79;;;0.05;83.24
44453;BME280;30155;52.164;21.236;2023-01-25T09:30:00;102324.90;;;0.01;83.48
44453;BME280;30155;52.164;21.236;2023-01-25T09:34:54;102326.02;;;0.04;83.79
44453;BME280;30155;52.164;21.236;2023-01-25T09:39:47;102318.65;;;0.09;83.54
44453;BME280;30155;52.164;21.236;2023-01-25T09:50:15;102299.80;;;0.14;82.81
44453;BME280;30155;52.164;21.236;2023-01-25T09:55:14;102294.79;;;0.12;82.86
44453;BME280;30155;52.164;21.236;2023-01-25T10:00:23;102287.47;;;0.14;82.70
44453;BME280;30155;52.164;21.236;2023-01-25T10:05:26;102288.52;;;0.14;82.75
44453;BME280;30155;52.164;21.236;2023-01-25T10:10:28;102283.94;;;0.16;82.86
44453;BME280;30155;52.164;21.236;2023-01-25T10:15:30;102279.70;;;0.21;82.94
44453;BME280;30155;52.164;21.236;2023-01-25T10:20:30;102264.98;;;0.16;82.42
44453;BME280;30155;52.164;21.236;2023-01-25T10:25:43;102259.26;;;0.15;82.63
44453;BME280;30155;52.164;21.236;2023-01-25T10:30:43;102251.92;;;0.17;82.94
44453;BME280;30155;52.164;21.236;2023-01-25T10:35:43;102246.16;;;0.19;83.06
44453;BME280;30155;52.164;21.236;2023-01-25T10:40:42;102232.73;;;0.22;83.22
44453;BME280;30155;52.164;21.236;2023-01-25T10:45:39;102227.08;;;0.26;82.83
44453;BME280;30155;52.164;21.236;2023-01-25T10:55:32;102221.59;;;0.29;82.84
44453;BME280;30155;52.164;21.236;2023-01-25T11:00:41;102213.99;;;0.30;83.11
44453;BME280;30155;52.164;21.236;2023-01-25T11:05:38;102214.23;;;0.27;82.51
44453;BME280;30155;52.164;21.236;2023-01-25T11:10:33;102208.46;;;0.19;82.36
44453;BME280;30155;52.164;21.236;2023-01-25T11:15:26;102193.37;;;0.18;82.79
44453;BME280;30155;52.164;21.236;2023-01-25T11:20:20;102189.13;;;0.23;82.54
44453;BME280;30155;52.164;21.236;2023-01-25T11:25:28;102182.15;;;0.21;82.63
44453;BME280;30155;52.164;21.236;2023-01-25T11:30:21;102168.63;;;0.22;82.52
44453;BME280;30155;52.164;21.236;2023-01-25T11:35:19;102160.27;;;0.22;82.25
44453;BME280;30155;52.164;21.236;2023-01-25T11:40:44;102151.21;;;0.24;82.38
44453;BME280;30155;52.164;21.236;2023-01-25T11:50:41;102151.83;;;0.27;82.38
44453;BME280;30155;52.164;21.236;2023-01-25T11:56:08;102145.27;;;0.31;82.39
44453;BME280;30155;52.164;21.236;2023-01-25T12:01:36;102133.17;;;0.31;82.48
44453;BME280;30155;52.164;21.236;2023-01-25T12:12:31;102116.13;;;0.31;82.49
44453;BME280;30155;52.164;21.236;2023-01-25T12:23:06;102111.83;;;0.30;82.80
44453;BME280;30155;52.164;21.236;2023-01-25T12:28:20;102102.80;;;0.30;82.70
44453;BME280;30155;52.164;21.236;2023-01-25T12:33:29;102093.98;;;0.33;82.24
44453;BME280;30155;52.164;21.236;2023-01-25T12:38:36;102083.02;;;0.33;82.24
44453;BME280;30155;52.164;21.236;2023-01-25T12:43:44;102083.55;;;0.35;82.34
44453;BME280;30155;52.164;21.236;2023-01-25T12:48:43;102083.46;;;0.38;82.32
44453;BME280;30155;52.164;21.236;2023-01-25T12:53:41;102077.10;;;0.35;82.30
44453;BME280;30155;52.164;21.236;2023-01-25T12:58:45;102075.09;;;0.34;82.37
44453;BME280;30155;52.164;21.236;2023-01-25T13:09:02;102067.55;;;0.29;82.57
44453;BME280;30155;52.164;21.236;2023-01-25T13:14:17;102054.25;;;0.29;82.79
44453;BME280;30155;52.164;21.236;2023-01-25T13:24:33;102044.09;;;0.26;82.30
44453;BME280;30155;52.164;21.236;2023-01-25T13:44:24;102024.97;;;0.32;82.20
44453;BME280;30155;52.164;21.236;2023-01-25T13:49:23;102027.02;;;0.26;82.11
44453;BME280;30155;52.164;21.236;2023-01-25T13:54:19;102017.23;;;0.19;82.49
44453;BME280;30155;52.164;21.236;2023-01-25T13:59:25;102013.93;;;0.16;82.55
44453;BME280;30155;52.164;21.236;2023-01-25T14:04:18;102009.65;;;0.13;82.58
44453;BME280;30155;52.164;21.236;2023-01-25T14:09:15;102006.03;;;0.11;82.59
44453;BME280;30155;52.164;21.236;2023-01-25T14:14:23;101997.35;;;0.07;82.63
44453;BME280;30155;52.164;21.236;2023-01-25T14:19:24;101992.58;;;0.00;82.46
44453;BME280;30155;52.164;21.236;2023-01-25T14:24:19;101990.64;;;-0.01;82.47
44453;BME280;30155;52.164;21.236;2023-01-25T14:29:19;101986.27;;;0.00;82.92
44453;BME280;30155;52.164;21.236;2023-01-25T14:34:25;101972.65;;;-0.02;82.93
44453;BME280;30155;52.164;21.236;2023-01-25T14:39:27;101968.41;;;-0.04;82.97
44453;BME280;30155;52.164;21.236;2023-01-25T14:44:21;101960.96;;;-0.08;83.01
44453;BME280;30155;52.164;21.236;2023-01-25T14:49:24;101958.54;;;-0.10;83.02
44453;BME280;30155;52.164;21.236;2023-01-25T14:54:42;101947.63;;;-0.12;82.80
44453;BME280;30155;52.164;21.236;2023-01-25T15:04:30;101939.20;;;-0.17;83.19
44453;BME280;30155;52.164;21.236;2023-01-25T15:09:40;101932.39;;;-0.17;83.07
44453;BME280;30155;52.164;21.236;2023-01-25T15:14:45;101926.73;;;-0.18;83.12
44453;BME280;30155;52.164;21.236;2023-01-25T15:19:51;101918.65;;;-0.16;83.52
44453;BME280;30155;52.164;21.236;2023-01-25T15:24:44;101913.37;;;-0.17;83.28
44453;BME280;30155;52.164;21.236;2023-01-25T15:29:47;101911.06;;;-0.16;83.40
44453;BME280;30155;52.164;21.236;2023-01-25T15:34:41;101904.95;;;-0.20;83.25
44453;BME280;30155;52.164;21.236;2023-01-25T15:39:33;101900.79;;;-0.23;83.33
44453;BME280;30155;52.164;21.236;2023-01-25T15:44:26;101899.14;;;-0.22;83.46
44453;BME280;30155;52.164;21.236;2023-01-25T15:49:25;101895.41;;;-0.22;83.53
44453;BME280;30155;52.164;21.236;2023-01-25T15:54:19;101890.40;;;-0.21;83.53
44453;BME280;30155;52.164;21.236;2023-01-25T15:59:15;101882.24;;;-0.18;83.52
44453;BME280;30155;52.164;21.236;2023-01-25T16:04:09;101875.09;;;-0.18;83.52
44453;BME280;30155;52.164;21.236;2023-01-25T16:09:24;101871.90;;;-0.17;83.80
44453;BME280;30155;52.164;21.236;2023-01-25T16:14:17;101866.85;;;-0.19;83.64
44453;BME280;30155;52.164;21.236;2023-01-25T16:19:12;101866.86;;;-0.18;83.67
44453;BME280;30155;52.164;21.236;2023-01-25T16:24:06;101861.16;;;-0.17;83.73
44453;BME280;30155;52.164;21.236;2023-01-25T16:28:59;101854.57;;;-0.17;83.76
44453;BME280;30155;52.164;21.236;2023-01-25T16:33:52;101854.15;;;-0.18;83.83
44453;BME280;30155;52.164;21.236;2023-01-25T16:38:45;101847.19;;;-0.19;83.69
44453;BME280;30155;52.164;21.236;2023-01-25T16:43:46;101839.30;;;-0.20;83.97
44453;BME280;30155;52.164;21.236;2023-01-25T16:48:39;101829.67;;;-0.19;84.11
44453;BME280;30155;52.164;21.236;2023-01-25T16:53:32;101826.93;;;-0.17;84.25
44453;BME280;30155;52.164;21.236;2023-01-25T16:58:25;101822.53;;;-0.19;83.95
44453;BME280;30155;52.164;21.236;2023-01-25T17:03:18;101816.69;;;-0.19;84.00
44453;BME280;30155;52.164;21.236;2023-01-25T17:08:11;101812.78;;;-0.19;83.75
44453;BME280;30155;52.164;21.236;2023-01-25T17:13:03;101802.69;;;-0.22;83.74
44453;BME280;30155;52.164;21.236;2023-01-25T17:17:59;101796.09;;;-0.22;84.13
44453;BME280;30155;52.164;21.236;2023-01-25T17:22:51;101795.69;;;-0.20;84.08
44453;BME280;30155;52.164;21.236;2023-01-25T17:27:44;101791.86;;;-0.19;84.15
44453;BME280;30155;52.164;21.236;2023-01-25T17:32:37;101787.63;;;-0.19;83.97
44453;BME280;30155;52.164;21.236;2023-01-25T17:37:32;101787.39;;;-0.19;83.88
44453;BME280;30155;52.164;21.236;2023-01-25T17:42:25;101769.73;;;-0.16;84.40
44453;BME280;30155;52.164;21.236;2023-01-25T17:47:17;101768.34;;;-0.15;84.40
44453;BME280;30155;52.164;21.236;2023-01-25T17:52:10;101766.55;;;-0.15;84.33
44453;BME280;30155;52.164;21.236;2023-01-25T17:57:03;101763.79;;;-0.14;84.46
44453;BME280;30155;52.164;21.236;2023-01-25T18:01:56;101753.31;;;-0.13;84.43
44453;BME280;30155;52.164;21.236;2023-01-25T18:06:49;101752.66;;;-0.14;84.19
44453;BME280;30155;52.164;21.236;2023-01-25T18:11:42;101747.49;;;-0.15;84.21
44453;BME280;30155;52.164;21.236;2023-01-25T18:16:37;101750.92;;;-0.15;84.38
44453;BME280;30155;52.164;21.236;2023-01-25T18:21:31;101748.82;;;-0.13;84.21
44453;BME280;30155;52.164;21.236;2023-01-25T18:26:30;101756.48;;;-0.13;84.22
44453;BME280;30155;52.164;21.236;2023-01-25T18:31:24;101751.14;;;-0.12;84.53
44453;BME280;30155;52.164;21.236;2023-01-25T18:36:18;101748.51;;;-0.11;84.52
44453;BME280;30155;52.164;21.236;2023-01-25T18:41:11;101745.77;;;-0.11;84.34
44453;BME280;30155;52.164;21.236;2023-01-25T18:46:04;101746.03;;;-0.10;84.25
44453;BME280;30155;52.164;21.236;2023-01-25T18:51:11;101750.44;;;-0.10;84.36
44453;BME280;30155;52.164;21.236;2023-01-25T18:56:07;101751.39;;;-0.09;84.46
44453;BME280;30155;52.164;21.236;2023-01-25T19:01:11;101745.73;;;-0.10;84.48
44453;BME280;30155;52.164;21.236;2023-01-25T19:06:05;101739.10;;;-0.09;84.54
44453;BME280;30155;52.164;21.236;2023-01-25T19:11:03;101734.92;;;-0.08;84.41
44453;BME280;30155;52.164;21.236;2023-01-25T19:16:03;101725.38;;;-0.10;84.46
44453;BME280;30155;52.164;21.236;2023-01-25T19:20:56;101716.92;;;-0.12;84.76
44453;BME280;30155;52.164;21.236;2023-01-25T19:25:54;101710.11;;;-0.09;84.69
44453;BME280;30155;52.164;21.236;2023-01-25T19:30:46;101709.30;;;-0.09;84.61
44453;BME280;30155;52.164;21.236;2023-01-25T19:35:39;101708.29;;;-0.09;84.59
44453;BME280;30155;52.164;21.236;2023-01-25T19:40:33;101704.50;;;-0.07;84.53
44453;BME280;30155;52.164;21.236;2023-01-25T19:45:26;101690.96;;;-0.08;84.66
44453;BME280;30155;52.164;21.236;2023-01-25T19:50:18;101682.30;;;-0.07;84.43
44453;BME280;30155;52.164;21.236;2023-01-25T19:55:11;101671.58;;;-0.10;84.71
44453;BME280;30155;52.164;21.236;2023-01-25T20:00:05;101674.39;;;-0.08;84.68
44453;BME280;30155;52.164;21.236;2023-01-25T20:04:59;101668.91;;;-0.06;84.75
44453;BME280;30155;52.164;21.236;2023-01-25T20:09:52;101666.52;;;-0.04;84.88
44453;BME280;30155;52.164;21.236;2023-01-25T20:14:45;101662.41;;;-0.07;84.50
44453;BME280;30155;52.164;21.236;2023-01-25T20:19:38;101647.77;;;-0.09;84.53
44453;BME280;30155;52.164;21.236;2023-01-25T20:24:31;101640.52;;;-0.08;84.72
44453;BME280;30155;52.164;21.236;2023-01-25T20:29:24;101641.62;;;-0.07;84.61
44453;BME280;30155;52.164;21.236;2023-01-25T20:34:21;101630.44;;;-0.08;84.61
44453;BME280;30155;52.164;21.236;2023-01-25T20:39:17;101628.36;;;-0.09;85.00
44453;BME280;30155;52.164;21.236;2023-01-25T20:44:12;101629.10;;;-0.08;84.93
44453;BME280;30155;52.164;21.236;2023-01-25T20:49:13;101623.49;;;-0.10;85.04
44453;BME280;30155;52.164;21.236;2023-01-25T20:54:06;101622.30;;;-0.10;84.90
44453;BME280;30155;52.164;21.236;2023-01-25T20:58:59;101625.98;;;-0.11;84.83
44453;BME280;30155;52.164;21.236;2023-01-25T21:03:52;101624.29;;;-0.10;85.00
44453;BME280;30155;52.164;21.236;2023-01-25T21:08:47;101617.30;;;-0.10;85.00
44453;BME280;30155;52.164;21.236;2023-01-25T21:13:40;101610.59;;;-0.11;84.87
44453;BME280;30155;52.164;21.236;2023-01-25T21:18:35;101606.38;;;-0.11;84.97
44453;BME280;30155;52.164;21.236;2023-01-25T21:23:32;101617.02;;;-0.10;85.18
44453;BME280;30155;52.164;21.236;2023-01-25T21:28:26;101610.23;;;-0.09;85.04
44453;BME280;30155;52.164;21.236;2023-01-25T21:33:19;101606.79;;;-0.08;85.23
44453;BME280;30155;52.164;21.236;2023-01-25T21:38:12;101598.48;;;-0.07;85.22
44453;BME280;30155;52.164;21.236;2023-01-25T21:43:05;101593.55;;;-0.07;85.14
44453;BME280;30155;52.164;21.236;2023-01-25T21:47:58;101589.93;;;-0.05;85.43
44453;BME280;30155;52.164;21.236;2023-01-25T21:52:52;101590.98;;;-0.05;85.22
44453;BME280;30155;52.164;21.236;2023-01-25T21:57:45;101593.76;;;-0.06;85.34
44453;BME280;30155;52.164;21.236;2023-01-25T22:02:38;101593.69;;;-0.05;85.28
44453;BME280;30155;52.164;21.236;2023-01-25T22:07:31;101599.29;;;-0.03;85.28
44453;BME280;30155;52.164;21.236;2023-01-25T22:12:24;101600.40;;;-0.02;85.30
44453;BME280;30155;52.164;21.236;2023-01-25T22:17:17;101597.52;;;-0.04;85.11
44453;BME280;30155;52.164;21.236;2023-01-25T22:22:13;101589.25;;;-0.05;85.22
44453;BME280;30155;52.164;21.236;2023-01-25T22:32:08;101579.89;;;-0.03;85.37
44453;BME280;30155;52.164;21.236;2023-01-25T22:37:02;101572.27;;;-0.02;85.52
44453;BME280;30155;52.164;21.236;2023-01-25T22:41:55;101567.27;;;-0.03;85.63
44453;BME280;30155;52.164;21.236;2023-01-25T22:46:48;101562.67;;;-0.03;85.76
44453;BME280;30155;52.164;21.236;2023-01-25T22:51:43;101555.21;;;-0.02;85.68
44453;BME280;30155;52.164;21.236;2023-01-25T22:56:36;101547.77;;;-0.02;85.69
44453;BME280;30155;52.164;21.236;2023-01-25T23:01:31;101540.05;;;-0.02;85.52
44453;BME280;30155;52.164;21.236;2023-01-25T23:06:30;101534.35;;;-0.03;85.55
44453;BME280;30155;52.164;21.236;2023-01-25T23:11:26;101533.86;;;-0.03;86.05
44453;BME280;30155;52.164;21.236;2023-01-25T23:16:26;101529.86;;;-0.02;85.89
44453;BME280;30155;52.164;21.236;2023-01-25T23:21:21;101520.39;;;-0.03;85.84
44453;BME280;30155;52.164;21.236;2023-01-25T23:26:14;101505.39;;;-0.03;85.76
44453;BME280;30155;52.164;21.236;2023-01-25T23:31:10;101496.71;;;-0.03;86.05
44453;BME280;30155;52.164;21.236;2023-01-25T23:36:10;101500.34;;;-0.02;86.09
44453;BME280;30155;52.164;21.236;2023-01-25T23:41:04;101483.13;;;-0.02;85.99
44453;BME280;30155;52.164;21.236;2023-01-25T23:45:57;101477.20;;;-0.02;85.86
44453;BME280;30155;52.164;21.236;2023-01-25T23:50:51;101472.95;;;-0.01;86.19
44453;BME280;30155;52.164;21.236;2023-01-25T23:55:59;101470.35;;;-0.04;85.94
